sensor_id;sensor_type;location;lat;lon;timestamp;temperature;humidity
19665;DHT22;9980;51.020;7.772;2023-05-10T00:00:37;16.20;99.90
19665;DHT22;9980;51.020;7.772;2023-05-10T00:03:03;16.20;99.90
19665;DHT22;9980;51.020;7.772;2023-05-10T00:05:31;16.30;99.90
19665;DHT22;9980;51.020;7.772;2023-05-10T00:07:57;16.20;99.90
19665;DHT22;9980;51.020;7.772;2023-05-10T00:10:23;16.20;99.90
19665;DHT22;9980;51.020;7.772;2023-05-10T00:12:50;16.20;99.90
19665;DHT22;9980;51.020;7.772;2023-05-10T00:15:16;16.20;99.90
19665;DHT22;9980;51.020;7.772;2023-05-10T00:17:42;16.20;99.90
19665;DHT22;9980;51.020;7.772;2023-05-10T00:20:09;16.20;99.90
19665;DHT22;9980;51.020;7.772;2023-05-10T00:22:36;16.20;99.90
19665;DHT22;9980;51.020;7.772;2023-05-10T00:25:02;16.10;99.90
19665;DHT22;9980;51.020;7.772;2023-05-10T00:27:29;16.10;99.90
19665;DHT22;9980;51.020;7.772;2023-05-10T00:29:55;16.10;99.90
19665;DHT22;9980;51.020;7.772;2023-05-10T00:32:21;16.20;99.90
19665;DHT22;9980;51.020;7.772;2023-05-10T00:34:48;16.20;99.90
19665;DHT22;9980;51.020;7.772;2023-05-10T00:37:14;16.20;99.90
19665;DHT22;9980;51.020;7.772;2023-05-10T00:39:40;16.10;99.90
19665;DHT22;9980;51.020;7.772;2023-05-10T00:42:06;16.10;99.90
19665;DHT22;9980;51.020;7.772;2023-05-10T00:44:33;16.20;99.90
19665;DHT22;9980;51.020;7.772;2023-05-10T00:46:59;16.20;99.90
19665;DHT22;9980;51.020;7.772;2023-05-10T00:49:28;16.20;99.90
19665;DHT22;9980;51.020;7.772;2023-05-10T00:51:54;16.20;99.90
19665;DHT22;9980;51.020;7.772;2023-05-10T00:54:21;16.10;99.90
19665;DHT22;9980;51.020;7.772;2023-05-10T00:56:47;16.10;99.90
19665;DHT22;9980;51.020;7.772;2023-05-10T00:59:18;16.10;99.90
19665;DHT22;9980;51.020;7.772;2023-05-10T01:01:46;16.10;99.90
19665;DHT22;9980;51.020;7.772;2023-05-10T01:04:13;16.10;99.90
19665;DHT22;9980;51.020;7.772;2023-05-10T01:06:41;16.10;99.90
19665;DHT22;9980;51.020;7.772;2023-05-10T01:09:08;16.20;99.90
19665;DHT22;9980;51.020;7.772;2023-05-10T01:11:35;16.10;99.90
19665;DHT22;9980;51.020;7.772;2023-05-10T01:14:03;16.10;99.90
19665;DHT22;9980;51.020;7.772;2023-05-10T01:16:37;16.10;99.90
19665;DHT22;9980;51.020;7.772;2023-05-10T01:19:12;16.10;99.90
19665;DHT22;9980;51.020;7.772;2023-05-10T01:30:38;16.00;99.90
19665;DHT22;9980;51.020;7.772;2023-05-10T01:33:32;16.00;99.90
19665;DHT22;9980;51.020;7.772;2023-05-10T01:39:01;16.00;99.90
19665;DHT22;9980;51.020;7.772;2023-05-10T01:41:49;15.90;99.90
19665;DHT22;9980;51.020;7.772;2023-05-10T01:47:41;15.90;99.90
19665;DHT22;9980;51.020;7.772;2023-05-10T01:50:17;15.90;99.90
19665;DHT22;9980;51.020;7.772;2023-05-10T01:52:53;15.90;99.90
19665;DHT22;9980;51.020;7.772;2023-05-10T01:55:25;15.90;99.90
19665;DHT22;9980;51.020;7.772;2023-05-10T01:58:17;15.90;99.90
19665;DHT22;9980;51.020;7.772;2023-05-10T02:00:48;15.90;99.90
19665;DHT22;9980;51.020;7.772;2023-05-10T02:03:21;15.90;99.90
19665;DHT22;9980;51.020;7.772;2023-05-10T02:05:50;15.90;99.90
19665;DHT22;9980;51.020;7.772;2023-05-10T02:08:22;15.90;99.90
19665;DHT22;9980;51.020;7.772;2023-05-10T02:10:51;15.80;99.90
19665;DHT22;9980;51.020;7.772;2023-05-10T02:13:21;15.90;99.90
19665;DHT22;9980;51.020;7.772;2023-05-10T02:15:51;15.80;99.90
19665;DHT22;9980;51.020;7.772;2023-05-10T02:18:21;15.80;99.90
19665;DHT22;9980;51.020;7.772;2023-05-10T02:20:50;15.80;99.90
19665;DHT22;9980;51.020;7.772;2023-05-10T02:23:18;15.80;99.90
19665;DHT22;9980;51.020;7.772;2023-05-10T02:25:47;15.80;99.90
19665;DHT22;9980;51.020;7.772;2023-05-10T02:28:15;15.80;99.90
19665;DHT22;9980;51.020;7.772;2023-05-10T02:30:44;15.80;99.90
19665;DHT22;9980;51.020;7.772;2023-05-10T02:33:11;15.80;99.90
19665;DHT22;9980;51.020;7.772;2023-05-10T02:35:38;15.80;99.90
19665;DHT22;9980;51.020;7.772;2023-05-10T02:38:06;15.90;99.90
19665;DHT22;9980;51.020;7.772;2023-05-10T02:40:33;15.90;99.90
19665;DHT22;9980;51.020;7.772;2023-05-10T02:43:02;15.80;99.90
19665;DHT22;9980;51.020;7.772;2023-05-10T02:45:32;15.90;99.90
19665;DHT22;9980;51.020;7.772;2023-05-10T02:48:02;15.90;99.90
19665;DHT22;9980;51.020;7.772;2023-05-10T02:50:30;15.90;99.90
19665;DHT22;9980;51.020;7.772;2023-05-10T02:53:15;15.90;99.90
19665;DHT22;9980;51.020;7.772;2023-05-10T02:55:50;15.90;99.90
19665;DHT22;9980;51.020;7.772;2023-05-10T02:58:18;15.90;99.90
19665;DHT22;9980;51.020;7.772;2023-05-10T03:00:45;15.90;99.90
19665;DHT22;9980;51.020;7.772;2023-05-10T03:03:12;15.90;99.90
19665;DHT22;9980;51.020;7.772;2023-05-10T03:05:38;15.90;99.90
19665;DHT22;9980;51.020;7.772;2023-05-10T03:08:05;15.90;99.90
19665;DHT22;9980;51.020;7.772;2023-05-10T03:10:40;15.90;99.90
19665;DHT22;9980;51.020;7.772;2023-05-10T03:16:14;15.90;99.90
19665;DHT22;9980;51.020;7.772;2023-05-10T03:19:01;15.90;99.90
19665;DHT22;9980;51.020;7.772;2023-05-10T03:21:44;15.90;99.90
19665;DHT22;9980;51.020;7.772;2023-05-10T03:24:16;15.90;99.90
19665;DHT22;9980;51.020;7.772;2023-05-10T03:26:46;15.90;99.90
19665;DHT22;9980;51.020;7.772;2023-05-10T03:29:17;15.90;99.90
19665;DHT22;9980;51.020;7.772;2023-05-10T03:31:44;15.90;99.90
19665;DHT22;9980;51.020;7.772;2023-05-10T03:34:11;15.90;99.90
19665;DHT22;9980;51.020;7.772;2023-05-10T03:36:37;15.90;99.90
19665;DHT22;9980;51.020;7.772;2023-05-10T03:39:04;15.90;99.90
19665;DHT22;9980;51.020;7.772;2023-05-10T03:41:30;15.90;99.90
19665;DHT22;9980;51.020;7.772;2023-05-10T03:43:56;15.90;99.90
19665;DHT22;9980;51.020;7.772;2023-05-10T03:46:23;15.90;99.90
19665;DHT22;9980;51.020;7.772;2023-05-10T03:48:49;15.90;99.90
19665;DHT22;9980;51.020;7.772;2023-05-10T03:51:15;15.90;99.90
19665;DHT22;9980;51.020;7.772;2023-05-10T03:53:42;15.90;99.90
19665;DHT22;9980;51.020;7.772;2023-05-10T03:56:09;15.90;99.90
19665;DHT22;9980;51.020;7.772;2023-05-10T03:58:35;15.90;99.90
19665;DHT22;9980;51.020;7.772;2023-05-10T04:01:01;15.90;99.90
19665;DHT22;9980;51.020;7.772;2023-05-10T04:03:28;15.90;99.90
19665;DHT22;9980;51.020;7.772;2023-05-10T04:06:01;15.90;99.90
19665;DHT22;9980;51.020;7.772;2023-05-10T04:08:28;15.90;99.90
19665;DHT22;9980;51.020;7.772;2023-05-10T04:11:05;15.90;99.90
19665;DHT22;9980;51.020;7.772;2023-05-10T04:13:36;15.90;99.90
19665;DHT22;9980;51.020;7.772;2023-05-10T04:16:03;15.90;99.90
19665;DHT22;9980;51.020;7.772;2023-05-10T04:18:30;15.90;99.90
19665;DHT22;9980;51.020;7.772;2023-05-10T04:20:57;15.90;99.90
19665;DHT22;9980;51.020;7.772;2023-05-10T04:23:23;15.90;99.90
19665;DHT22;9980;51.020;7.772;2023-05-10T04:25:49;15.90;99.90
19665;DHT22;9980;51.020;7.772;2023-05-10T04:28:16;15.90;99.90
19665;DHT22;9980;51.020;7.772;2023-05-10T04:30:42;15.90;99.90
19665;DHT22;9980;51.020;7.772;2023-05-10T04:33:08;15.80;99.90
19665;DHT22;9980;51.020;7.772;2023-05-10T04:35:35;15.90;99.90
19665;DHT22;9980;51.020;7.772;2023-05-10T04:38:01;15.80;99.90
19665;DHT22;9980;51.020;7.772;2023-05-10T04:40:27;15.90;99.90
19665;DHT22;9980;51.020;7.772;2023-05-10T04:42:53;15.90;99.90
19665;DHT22;9980;51.020;7.772;2023-05-10T04:45:20;15.90;99.90
19665;DHT22;9980;51.020;7.772;2023-05-10T04:47:46;15.90;99.90
19665;DHT22;9980;51.020;7.772;2023-05-10T04:50:12;15.90;99.90
19665;DHT22;9980;51.020;7.772;2023-05-10T04:52:39;15.90;99.90
19665;DHT22;9980;51.020;7.772;2023-05-10T04:55:05;15.90;99.90
19665;DHT22;9980;51.020;7.772;2023-05-10T04:57:33;15.90;99.90
19665;DHT22;9980;51.020;7.772;2023-05-10T05:00:00;15.90;99.90
19665;DHT22;9980;51.020;7.772;2023-05-10T05:02:26;15.90;99.90
19665;DHT22;9980;51.020;7.772;2023-05-10T05:04:55;15.90;99.90
19665;DHT22;9980;51.020;7.772;2023-05-10T05:07:21;15.90;99.90
19665;DHT22;9980;51.020;7.772;2023-05-10T05:09:48;15.90;99.90
19665;DHT22;9980;51.020;7.772;2023-05-10T05:12:14;15.90;99.90
19665;DHT22;9980;51.020;7.772;2023-05-10T05:14:40;15.90;99.90
19665;DHT22;9980;51.020;7.772;2023-05-10T05:17:07;15.90;99.90
19665;DHT22;9980;51.020;7.772;2023-05-10T05:19:33;15.90;99.90
19665;DHT22;9980;51.020;7.772;2023-05-10T05:22:00;15.90;99.90
19665;DHT22;9980;51.020;7.772;2023-05-10T05:24:26;15.90;99.90
19665;DHT22;9980;51.020;7.772;2023-05-10T05:26:52;16.00;99.90
19665;DHT22;9980;51.020;7.772;2023-05-10T05:29:18;16.00;99.90
19665;DHT22;9980;51.020;7.772;2023-05-10T05:31:45;16.00;99.90
19665;DHT22;9980;51.020;7.772;2023-05-10T05:34:11;16.00;99.90
19665;DHT22;9980;51.020;7.772;2023-05-10T05:36:37;16.10;99.90
19665;DHT22;9980;51.020;7.772;2023-05-10T05:39:07;16.10;99.90
19665;DHT22;9980;51.020;7.772;2023-05-10T05:41:33;16.10;99.90
19665;DHT22;9980;51.020;7.772;2023-05-10T05:43:59;16.10;99.90
19665;DHT22;9980;51.020;7.772;2023-05-10T05:46:26;16.10;99.90
19665;DHT22;9980;51.020;7.772;2023-05-10T05:48:52;16.20;99.90
19665;DHT22;9980;51.020;7.772;2023-05-10T05:51:18;16.20;99.90
19665;DHT22;9980;51.020;7.772;2023-05-10T05:53:44;16.20;99.90
19665;DHT22;9980;51.020;7.772;2023-05-10T05:56:11;16.20;99.90
19665;DHT22;9980;51.020;7.772;2023-05-10T05:58:37;16.30;99.90
19665;DHT22;9980;51.020;7.772;2023-05-10T06:01:03;16.30;99.90
19665;DHT22;9980;51.020;7.772;2023-05-10T06:03:29;16.30;99.90
19665;DHT22;9980;51.020;7.772;2023-05-10T06:05:56;16.30;99.90
19665;DHT22;9980;51.020;7.772;2023-05-10T06:08:22;16.30;99.90
19665;DHT22;9980;51.020;7.772;2023-05-10T06:10:48;16.40;99.90
19665;DHT22;9980;51.020;7.772;2023-05-10T06:13:15;16.40;99.90
19665;DHT22;9980;51.020;7.772;2023-05-10T06:15:41;16.40;99.90
19665;DHT22;9980;51.020;7.772;2023-05-10T06:18:07;16.50;99.90
19665;DHT22;9980;51.020;7.772;2023-05-10T06:20:33;16.50;99.90
19665;DHT22;9980;51.020;7.772;2023-05-10T06:23:00;16.50;99.90
19665;DHT22;9980;51.020;7.772;2023-05-10T06:25:26;16.60;99.90
19665;DHT22;9980;51.020;7.772;2023-05-10T06:27:52;16.60;99.90
19665;DHT22;9980;51.020;7.772;2023-05-10T06:30:23;16.70;99.90
19665;DHT22;9980;51.020;7.772;2023-05-10T06:32:53;16.80;99.90
19665;DHT22;9980;51.020;7.772;2023-05-10T06:35:20;16.90;99.90
19665;DHT22;9980;51.020;7.772;2023-05-10T06:37:46;16.90;99.90
19665;DHT22;9980;51.020;7.772;2023-05-10T06:40:13;17.00;99.90
19665;DHT22;9980;51.020;7.772;2023-05-10T06:42:39;17.10;99.90
19665;DHT22;9980;51.020;7.772;2023-05-10T06:45:06;17.00;99.90
19665;DHT22;9980;51.020;7.772;2023-05-10T06:47:32;17.10;99.90
19665;DHT22;9980;51.020;7.772;2023-05-10T06:50:07;17.10;99.90
19665;DHT22;9980;51.020;7.772;2023-05-10T06:52:35;17.20;99.90
19665;DHT22;9980;51.020;7.772;2023-05-10T06:55:02;17.20;99.90
19665;DHT22;9980;51.020;7.772;2023-05-10T06:57:29;17.20;99.90
19665;DHT22;9980;51.020;7.772;2023-05-10T07:00:01;17.20;99.90
19665;DHT22;9980;51.020;7.772;2023-05-10T07:02:29;17.20;99.90
19665;DHT22;9980;51.020;7.772;2023-05-10T07:04:56;17.20;99.90
19665;DHT22;9980;51.020;7.772;2023-05-10T07:07:26;17.20;99.90
19665;DHT22;9980;51.020;7.772;2023-05-10T07:09:52;17.10;99.90
19665;DHT22;9980;51.020;7.772;2023-05-10T07:12:19;17.10;99.90
19665;DHT22;9980;51.020;7.772;2023-05-10T07:14:48;17.10;99.90
19665;DHT22;9980;51.020;7.772;2023-05-10T07:17:14;17.10;99.90
19665;DHT22;9980;51.020;7.772;2023-05-10T07:19:40;17.10;99.90
19665;DHT22;9980;51.020;7.772;2023-05-10T07:22:07;17.10;99.90
19665;DHT22;9980;51.020;7.772;2023-05-10T07:24:33;17.10;99.90
19665;DHT22;9980;51.020;7.772;2023-05-10T07:27:00;17.10;99.90
19665;DHT22;9980;51.020;7.772;2023-05-10T07:29:26;17.10;99.90
19665;DHT22;9980;51.020;7.772;2023-05-10T07:31:53;17.00;99.90
19665;DHT22;9980;51.020;7.772;2023-05-10T07:34:20;17.00;99.90
19665;DHT22;9980;51.020;7.772;2023-05-10T07:36:47;17.00;99.90
19665;DHT22;9980;51.020;7.772;2023-05-10T07:39:13;17.00;99.90
19665;DHT22;9980;51.020;7.772;2023-05-10T07:41:51;16.90;99.90
19665;DHT22;9980;51.020;7.772;2023-05-10T07:44:18;17.00;99.90
19665;DHT22;9980;51.020;7.772;2023-05-10T07:46:46;17.00;99.90
19665;DHT22;9980;51.020;7.772;2023-05-10T07:49:13;17.00;99.90
19665;DHT22;9980;51.020;7.772;2023-05-10T07:51:39;17.00;99.90
19665;DHT22;9980;51.020;7.772;2023-05-10T07:54:06;17.10;99.90
19665;DHT22;9980;51.020;7.772;2023-05-10T07:56:32;17.10;99.90
19665;DHT22;9980;51.020;7.772;2023-05-10T07:58:59;17.20;99.90
19665;DHT22;9980;51.020;7.772;2023-05-10T08:01:29;17.20;99.90
19665;DHT22;9980;51.020;7.772;2023-05-10T08:03:58;17.30;99.90
19665;DHT22;9980;51.020;7.772;2023-05-10T08:06:24;17.30;99.90
19665;DHT22;9980;51.020;7.772;2023-05-10T08:08:52;17.40;99.90
19665;DHT22;9980;51.020;7.772;2023-05-10T08:11:20;17.40;99.90
19665;DHT22;9980;51.020;7.772;2023-05-10T08:13:48;17.60;99.90
19665;DHT22;9980;51.020;7.772;2023-05-10T08:16:16;17.70;99.90
19665;DHT22;9980;51.020;7.772;2023-05-10T08:18:44;17.80;99.90
19665;DHT22;9980;51.020;7.772;2023-05-10T08:21:13;17.90;99.90
19665;DHT22;9980;51.020;7.772;2023-05-10T08:23:40;18.10;99.90
19665;DHT22;9980;51.020;7.772;2023-05-10T08:26:06;18.20;99.90
19665;DHT22;9980;51.020;7.772;2023-05-10T08:28:33;18.30;99.90
19665;DHT22;9980;51.020;7.772;2023-05-10T08:30:59;18.40;99.90
19665;DHT22;9980;51.020;7.772;2023-05-10T08:33:26;18.50;99.90
19665;DHT22;9980;51.020;7.772;2023-05-10T08:35:52;18.60;99.90
19665;DHT22;9980;51.020;7.772;2023-05-10T08:38:18;18.70;99.90
19665;DHT22;9980;51.020;7.772;2023-05-10T08:40:45;18.80;99.90
19665;DHT22;9980;51.020;7.772;2023-05-10T08:43:15;18.80;99.90
19665;DHT22;9980;51.020;7.772;2023-05-10T08:45:43;18.80;99.90
19665;DHT22;9980;51.020;7.772;2023-05-10T08:48:14;18.90;99.90
19665;DHT22;9980;51.020;7.772;2023-05-10T08:50:42;18.90;99.90
19665;DHT22;9980;51.020;7.772;2023-05-10T08:53:12;18.90;99.90
19665;DHT22;9980;51.020;7.772;2023-05-10T08:55:40;18.90;99.90
19665;DHT22;9980;51.020;7.772;2023-05-10T08:58:09;19.00;99.90
19665;DHT22;9980;51.020;7.772;2023-05-10T09:00:36;19.00;99.90
19665;DHT22;9980;51.020;7.772;2023-05-10T09:03:05;19.00;99.90
19665;DHT22;9980;51.020;7.772;2023-05-10T09:05:32;19.00;99.90
19665;DHT22;9980;51.020;7.772;2023-05-10T09:07:59;19.00;99.90
19665;DHT22;9980;51.020;7.772;2023-05-10T09:10:27;18.90;99.90
19665;DHT22;9980;51.020;7.772;2023-05-10T09:12:57;18.90;99.90
19665;DHT22;9980;51.020;7.772;2023-05-10T09:15:25;18.80;99.90
19665;DHT22;9980;51.020;7.772;2023-05-10T09:17:52;18.80;99.90
19665;DHT22;9980;51.020;7.772;2023-05-10T09:20:18;18.80;99.90
19665;DHT22;9980;51.020;7.772;2023-05-10T09:22:45;18.70;99.90
19665;DHT22;9980;51.020;7.772;2023-05-10T09:25:15;18.70;99.90
19665;DHT22;9980;51.020;7.772;2023-05-10T09:27:45;18.60;99.90
19665;DHT22;9980;51.020;7.772;2023-05-10T09:30:17;18.70;99.90
19665;DHT22;9980;51.020;7.772;2023-05-10T09:32:55;18.70;99.90
19665;DHT22;9980;51.020;7.772;2023-05-10T09:35:24;18.70;99.90
19665;DHT22;9980;51.020;7.772;2023-05-10T09:37:56;18.80;99.90
19665;DHT22;9980;51.020;7.772;2023-05-10T09:40:27;18.80;99.90
19665;DHT22;9980;51.020;7.772;2023-05-10T09:43:06;18.90;99.90
19665;DHT22;9980;51.020;7.772;2023-05-10T09:45:34;19.00;99.90
19665;DHT22;9980;51.020;7.772;2023-05-10T09:48:04;19.00;99.90
19665;DHT22;9980;51.020;7.772;2023-05-10T09:50:31;19.10;99.90
19665;DHT22;9980;51.020;7.772;2023-05-10T09:52:59;19.10;99.90
19665;DHT22;9980;51.020;7.772;2023-05-10T09:55:44;19.20;99.90
19665;DHT22;9980;51.020;7.772;2023-05-10T09:58:13;19.30;99.90
19665;DHT22;9980;51.020;7.772;2023-05-10T10:00:41;19.40;99.90
19665;DHT22;9980;51.020;7.772;2023-05-10T10:03:18;19.40;99.90
19665;DHT22;9980;51.020;7.772;2023-05-10T10:05:47;19.50;99.90
19665;DHT22;9980;51.020;7.772;2023-05-10T10:08:15;19.60;99.90
19665;DHT22;9980;51.020;7.772;2023-05-10T10:10:42;19.60;99.90
19665;DHT22;9980;51.020;7.772;2023-05-10T10:13:10;19.70;99.90
19665;DHT22;9980;51.020;7.772;2023-05-10T10:15:37;19.80;99.90
19665;DHT22;9980;51.020;7.772;2023-05-10T10:18:05;19.90;99.90
19665;DHT22;9980;51.020;7.772;2023-05-10T10:20:31;20.10;99.90
19665;DHT22;9980;51.020;7.772;2023-05-10T10:22:58;20.20;99.90
19665;DHT22;9980;51.020;7.772;2023-05-10T10:25:25;20.20;99.90
19665;DHT22;9980;51.020;7.772;2023-05-10T10:36:17;20.70;99.90
19665;DHT22;9980;51.020;7.772;2023-05-10T10:41:33;20.90;99.90
19665;DHT22;9980;51.020;7.772;2023-05-10T10:47:08;21.20;99.90
19665;DHT22;9980;51.020;7.772;2023-05-10T10:49:54;21.30;99.90
19665;DHT22;9980;51.020;7.772;2023-05-10T10:55:17;21.50;99.90
19665;DHT22;9980;51.020;7.772;2023-05-10T10:57:47;21.60;99.80
19665;DHT22;9980;51.020;7.772;2023-05-10T11:00:26;21.70;99.90
19665;DHT22;9980;51.020;7.772;2023-05-10T11:05:47;21.90;99.90
19665;DHT22;9980;51.020;7.772;2023-05-10T11:08:27;22.00;99.10
19665;DHT22;9980;51.020;7.772;2023-05-10T11:13:40;22.10;97.60
19665;DHT22;9980;51.020;7.772;2023-05-10T11:16:18;22.10;97.40
19665;DHT22;9980;51.020;7.772;2023-05-10T11:19:02;22.00;97.00
19665;DHT22;9980;51.020;7.772;2023-05-10T11:21:31;21.90;96.80
19665;DHT22;9980;51.020;7.772;2023-05-10T11:24:01;21.80;97.10
19665;DHT22;9980;51.020;7.772;2023-05-10T11:26:38;21.70;97.10
19665;DHT22;9980;51.020;7.772;2023-05-10T11:29:04;21.60;97.50
19665;DHT22;9980;51.020;7.772;2023-05-10T11:31:31;21.40;97.40
19665;DHT22;9980;51.020;7.772;2023-05-10T11:33:58;21.30;98.00
19665;DHT22;9980;51.020;7.772;2023-05-10T11:36:29;21.20;98.00
19665;DHT22;9980;51.020;7.772;2023-05-10T11:38:58;21.10;98.20
19665;DHT22;9980;51.020;7.772;2023-05-10T11:41:27;21.00;98.20
19665;DHT22;9980;51.020;7.772;2023-05-10T11:43:56;20.90;98.20
19665;DHT22;9980;51.020;7.772;2023-05-10T11:46:25;20.80;98.60
19665;DHT22;9980;51.020;7.772;2023-05-10T11:49:00;20.80;98.70
19665;DHT22;9980;51.020;7.772;2023-05-10T11:51:27;20.70;98.70
19665;DHT22;9980;51.020;7.772;2023-05-10T11:53:55;20.60;98.90
19665;DHT22;9980;51.020;7.772;2023-05-10T11:56:23;20.60;98.50
19665;DHT22;9980;51.020;7.772;2023-05-10T11:58:54;20.60;98.70
19665;DHT22;9980;51.020;7.772;2023-05-10T12:01:27;20.50;98.70
19665;DHT22;9980;51.020;7.772;2023-05-10T12:03:57;20.40;99.20
19665;DHT22;9980;51.020;7.772;2023-05-10T12:06:29;20.40;99.00
19665;DHT22;9980;51.020;7.772;2023-05-10T12:08:57;20.30;99.00
19665;DHT22;9980;51.020;7.772;2023-05-10T12:11:25;20.30;99.00
19665;DHT22;9980;51.020;7.772;2023-05-10T12:13:54;20.30;98.90
19665;DHT22;9980;51.020;7.772;2023-05-10T12:16:24;20.20;98.80
19665;DHT22;9980;51.020;7.772;2023-05-10T12:18:57;20.10;98.80
19665;DHT22;9980;51.020;7.772;2023-05-10T12:21:25;20.10;98.90
19665;DHT22;9980;51.020;7.772;2023-05-10T12:23:58;20.00;98.80
19665;DHT22;9980;51.020;7.772;2023-05-10T12:26:26;19.90;98.90
19665;DHT22;9980;51.020;7.772;2023-05-10T12:28:54;19.80;99.10
19665;DHT22;9980;51.020;7.772;2023-05-10T12:31:21;19.80;99.00
19665;DHT22;9980;51.020;7.772;2023-05-10T12:33:47;19.70;99.20
19665;DHT22;9980;51.020;7.772;2023-05-10T12:36:16;19.60;99.10
19665;DHT22;9980;51.020;7.772;2023-05-10T12:38:46;19.50;99.20
19665;DHT22;9980;51.020;7.772;2023-05-10T12:41:16;19.50;99.80
19665;DHT22;9980;51.020;7.772;2023-05-10T12:43:44;19.50;99.90
19665;DHT22;9980;51.020;7.772;2023-05-10T12:46:16;19.40;99.90
19665;DHT22;9980;51.020;7.772;2023-05-10T12:48:44;19.40;99.90
19665;DHT22;9980;51.020;7.772;2023-05-10T12:51:12;19.50;99.90
19665;DHT22;9980;51.020;7.772;2023-05-10T12:53:41;19.50;99.90
19665;DHT22;9980;51.020;7.772;2023-05-10T12:56:11;19.50;99.90
19665;DHT22;9980;51.020;7.772;2023-05-10T12:58:38;19.50;99.90
19665;DHT22;9980;51.020;7.772;2023-05-10T13:01:05;19.50;99.90
19665;DHT22;9980;51.020;7.772;2023-05-10T13:03:32;19.50;99.90
19665;DHT22;9980;51.020;7.772;2023-05-10T13:05:58;19.60;99.90
19665;DHT22;9980;51.020;7.772;2023-05-10T13:08:25;19.60;99.90
19665;DHT22;9980;51.020;7.772;2023-05-10T13:10:51;19.70;99.90
19665;DHT22;9980;51.020;7.772;2023-05-10T13:13:17;19.70;99.90
19665;DHT22;9980;51.020;7.772;2023-05-10T13:15:44;19.70;99.90
19665;DHT22;9980;51.020;7.772;2023-05-10T13:18:10;19.80;99.90
19665;DHT22;9980;51.020;7.772;2023-05-10T13:20:36;20.00;99.90
19665;DHT22;9980;51.020;7.772;2023-05-10T13:23:03;20.10;99.90
19665;DHT22;9980;51.020;7.772;2023-05-10T13:25:29;20.20;99.90
19665;DHT22;9980;51.020;7.772;2023-05-10T13:27:55;20.30;99.90
19665;DHT22;9980;51.020;7.772;2023-05-10T13:30:22;20.40;99.90
19665;DHT22;9980;51.020;7.772;2023-05-10T13:32:49;20.50;99.90
19665;DHT22;9980;51.020;7.772;2023-05-10T13:35:16;20.50;99.80
19665;DHT22;9980;51.020;7.772;2023-05-10T13:37:42;20.60;99.90
19665;DHT22;9980;51.020;7.772;2023-05-10T13:40:08;20.70;99.20
19665;DHT22;9980;51.020;7.772;2023-05-10T13:42:35;20.70;99.30
19665;DHT22;9980;51.020;7.772;2023-05-10T13:45:01;20.80;99.40
19665;DHT22;9980;51.020;7.772;2023-05-10T13:47:28;20.80;99.20
19665;DHT22;9980;51.020;7.772;2023-05-10T13:49:54;20.80;98.90
19665;DHT22;9980;51.020;7.772;2023-05-10T13:52:21;20.80;99.50
19665;DHT22;9980;51.020;7.772;2023-05-10T13:54:47;20.80;99.40
19665;DHT22;9980;51.020;7.772;2023-05-10T13:57:14;20.90;99.40
19665;DHT22;9980;51.020;7.772;2023-05-10T13:59:42;20.90;99.20
19665;DHT22;9980;51.020;7.772;2023-05-10T14:02:08;20.90;98.90
19665;DHT22;9980;51.020;7.772;2023-05-10T14:04:35;20.90;98.80
19665;DHT22;9980;51.020;7.772;2023-05-10T14:07:01;21.00;98.90
19665;DHT22;9980;51.020;7.772;2023-05-10T14:09:27;21.00;98.50
19665;DHT22;9980;51.020;7.772;2023-05-10T14:11:53;21.00;98.80
19665;DHT22;9980;51.020;7.772;2023-05-10T14:14:20;21.00;98.50
19665;DHT22;9980;51.020;7.772;2023-05-10T14:16:46;21.00;98.70
19665;DHT22;9980;51.020;7.772;2023-05-10T14:19:13;21.00;98.50
19665;DHT22;9980;51.020;7.772;2023-05-10T14:21:39;21.00;98.50
19665;DHT22;9980;51.020;7.772;2023-05-10T14:24:06;21.00;98.30
19665;DHT22;9980;51.020;7.772;2023-05-10T14:26:32;21.00;98.40
19665;DHT22;9980;51.020;7.772;2023-05-10T14:29:00;21.00;98.20
19665;DHT22;9980;51.020;7.772;2023-05-10T14:31:26;20.90;98.30
19665;DHT22;9980;51.020;7.772;2023-05-10T14:33:53;20.90;98.00
19665;DHT22;9980;51.020;7.772;2023-05-10T14:36:19;20.90;98.20
19665;DHT22;9980;51.020;7.772;2023-05-10T14:38:45;20.80;98.10
19665;DHT22;9980;51.020;7.772;2023-05-10T14:41:12;20.80;98.10
19665;DHT22;9980;51.020;7.772;2023-05-10T14:43:41;20.80;98.20
19665;DHT22;9980;51.020;7.772;2023-05-10T14:46:07;20.70;98.40
19665;DHT22;9980;51.020;7.772;2023-05-10T14:48:34;20.70;98.70
19665;DHT22;9980;51.020;7.772;2023-05-10T14:51:01;20.70;98.70
19665;DHT22;9980;51.020;7.772;2023-05-10T14:53:27;20.70;98.70
19665;DHT22;9980;51.020;7.772;2023-05-10T14:55:53;20.70;98.90
19665;DHT22;9980;51.020;7.772;2023-05-10T14:58:23;20.70;98.90
19665;DHT22;9980;51.020;7.772;2023-05-10T15:00:49;20.70;98.70
19665;DHT22;9980;51.020;7.772;2023-05-10T15:03:16;20.70;98.80
19665;DHT22;9980;51.020;7.772;2023-05-10T15:05:43;20.70;98.90
19665;DHT22;9980;51.020;7.772;2023-05-10T15:08:09;20.70;99.00
19665;DHT22;9980;51.020;7.772;2023-05-10T15:10:36;20.80;98.60
19665;DHT22;9980;51.020;7.772;2023-05-10T15:13:04;20.80;98.90
19665;DHT22;9980;51.020;7.772;2023-05-10T15:15:30;20.80;99.00
19665;DHT22;9980;51.020;7.772;2023-05-10T15:17:56;20.80;99.00
19665;DHT22;9980;51.020;7.772;2023-05-10T15:20:23;20.90;98.70
19665;DHT22;9980;51.020;7.772;2023-05-10T15:22:49;20.90;98.60
19665;DHT22;9980;51.020;7.772;2023-05-10T15:25:16;20.90;98.50
19665;DHT22;9980;51.020;7.772;2023-05-10T15:27:42;20.90;98.70
19665;DHT22;9980;51.020;7.772;2023-05-10T15:30:10;20.90;98.60
19665;DHT22;9980;51.020;7.772;2023-05-10T15:32:36;20.90;98.40
19665;DHT22;9980;51.020;7.772;2023-05-10T15:35:03;20.90;98.60
19665;DHT22;9980;51.020;7.772;2023-05-10T15:37:30;20.90;98.50
19665;DHT22;9980;51.020;7.772;2023-05-10T15:39:56;20.90;98.20
19665;DHT22;9980;51.020;7.772;2023-05-10T15:42:30;20.80;98.40
19665;DHT22;9980;51.020;7.772;2023-05-10T15:44:57;20.80;98.60
19665;DHT22;9980;51.020;7.772;2023-05-10T15:47:26;20.80;98.50
19665;DHT22;9980;51.020;7.772;2023-05-10T15:49:53;20.80;98.10
19665;DHT22;9980;51.020;7.772;2023-05-10T15:52:20;20.80;98.30
19665;DHT22;9980;51.020;7.772;2023-05-10T15:54:46;20.80;98.40
19665;DHT22;9980;51.020;7.772;2023-05-10T15:57:12;20.70;98.40
19665;DHT22;9980;51.020;7.772;2023-05-10T15:59:40;20.70;98.50
19665;DHT22;9980;51.020;7.772;2023-05-10T16:02:08;20.70;98.70
19665;DHT22;9980;51.020;7.772;2023-05-10T16:04:36;20.60;98.40
19665;DHT22;9980;51.020;7.772;2023-05-10T16:07:02;20.60;98.50
19665;DHT22;9980;51.020;7.772;2023-05-10T16:09:28;20.60;98.40
19665;DHT22;9980;51.020;7.772;2023-05-10T16:11:55;20.60;98.40
19665;DHT22;9980;51.020;7.772;2023-05-10T16:14:21;20.50;98.50
19665;DHT22;9980;51.020;7.772;2023-05-10T16:16:49;20.50;98.60
19665;DHT22;9980;51.020;7.772;2023-05-10T16:19:16;20.50;98.70
19665;DHT22;9980;51.020;7.772;2023-05-10T16:21:42;20.40;98.40
19665;DHT22;9980;51.020;7.772;2023-05-10T16:24:09;20.30;98.50
19665;DHT22;9980;51.020;7.772;2023-05-10T16:26:35;20.30;98.40
19665;DHT22;9980;51.020;7.772;2023-05-10T16:29:09;20.20;98.50
19665;DHT22;9980;51.020;7.772;2023-05-10T16:31:35;20.20;98.50